Nanjemoy, Maryland
Current Conditions -  °F | °C
As of 12:56 PM on Saturday 20 Dec 2014 (Local Time) from KNYG Reporting Station
Scattered Clouds Scattered Clouds  
Wind Chill: 35°   Ceiling: Unl
Heat Index: 35°   Visibility: 10mi
Dew Point: 22°   Wind: 3mph
Humidity: 59%   Direction: 100°E
Pressure: 30.31"   Gusts: NA
Location:  38.45°N, 77.22°W
Report Text: KNYG 201756Z AUTO 10003KT 10SM SCT120 02/M06 A3031 RMK AO2 SLP263 T00171056 10022 21039 58014 $
Loading
Personal Weather Stations






























Interactive Weather Map New forecast layout! Learn more

10-Day Weather Forecast

Advertisements
Track Severe Weather on mobile